This is the latest recevied weather packets stored in our database for station/object SQ4LOL-13. If no packets are shown the sender has not sent any weather packets the latest 10 day(s).
| Time | Temp. | Humidity | Pressure | Rain* | Wind** | Luminosity | Snow |
|---|---|---|---|---|---|---|---|
| 1778059333 | 23.33° C | 45% | 988.8 hPa | 0 mm | - | - | - |
| 1778058150 | 22.78° C | 48% | 988.8 hPa | 0 mm | - | - | - |
| 1778056926 | 21.11° C | 54% | 988.8 hPa | 0 mm | - | - | - |
| 1778055742 | 20° C | 57% | 988.9 hPa | 0 mm | - | - | - |
| 1778052110 | 16.67° C | 73% | 989.5 hPa | 0 mm | - | - | - |
| 1778049102 | 14.44° C | 80% | 989.7 hPa | 0 mm | - | - | - |
| 1778048499 | 13.89° C | 82% | 989.8 hPa | 0 mm | - | - | - |
| 1778047294 | 13.33° C | 83% | 989.8 hPa | 0 mm | - | - | - |
| 1778046089 | 13.33° C | 85% | 989.9 hPa | 0 mm | - | - | - |
| 1778045488 | 12.78° C | 86% | 990 hPa | 0 mm | - | - | - |
| 1778041875 | 12.22° C | 88% | 990 hPa | 0 mm | - | - | - |
| 1778040671 | 12.22° C | 88% | 989.9 hPa | 0 mm | - | - | - |
| 1778037059 | 12.22° C | 87% | 989.8 hPa | 0 mm | - | - | - |
| 1778034651 | 12.22° C | 85% | 989.9 hPa | 0 mm | - | - | - |
| 1778032845 | 12.78° C | 84% | 989.4 hPa | 0 mm | - | - | - |
| 1778031039 | 13.33° C | 84% | 989.4 hPa | 0 mm | - | - | - |
| 1778029234 | 13.33° C | 83% | 989.3 hPa | 0 mm | - | - | - |
| 1778028030 | 13.33° C | 82% | 989.4 hPa | 0 mm | - | - | - |
| 1778026825 | 13.89° C | 82% | 989.4 hPa | 0 mm | - | - | - |
| 1778024437 | 13.89° C | 80% | 989.5 hPa | 0 mm | - | - | - |
| 1778020203 | 15.56° C | 75% | 989.6 hPa | 0 mm | - | - | - |
| 1778019341 | 15.56° C | 74% | 989.8 hPa | 0 mm | - | - | - |
| 1778016290 | 16.67° C | 72% | 989.7 hPa | 0 mm | - | - | - |
| 1778013882 | 17.22° C | 70% | 989.5 hPa | 0 mm | - | - | - |
| 1778011475 | 18.33° C | 68% | 989.5 hPa | 0 mm | - | - | - |
* Rain latest hour (hover to see other rain measurements)
** Current wind speed in m/s (hover to see current wind gust speed)